Aviation Digital Data Service (ADDS)

Output produced by METARs form (0542 UTC 19 March 2019)
found at http://www.aviationweather.gov/metar/data/
 
UTAA 190500Z 29024G34KT 8000 FEW062CB BKN062 OVC100 13/M00 Q1009 R88/70D TEMPO 33024G34KT
TAF UTAA 190450Z 1905/2006 34018G28KT 5000 -RA SCT030 SCT050CB 530009 
     TEMPO 1906/1914 30028G38KT 3000 -SHRA SCT010 
     BECMG 2000/2002 02016KT
       
UTAT 190500Z 04012KT CAVOK 12/05 Q1009 R08/CLRD70 NOSIG
TAF UTAT 190454Z 1906/2006 02014G24KT 9999 SCT030CB OVC050 530003 570500 
     TEMPO 1906/1912 4000 -SHRA BKN020 
     PROB40 
     TEMPO 1906/1912 34018G28KT 2000 TSRA OVC010 
     TEMPO 1912/1918 VRB32KT 2000 TSSHRA BKN030CB
       
UTAM 190500Z 19004KT 9999 -SHRA SCT035CB BKN035 SCT100 11/08 Q1012 TEMPO 1500 BR -TSSHRA
TAF UTAM 190440Z 1906/2006 31018KT 5000 -SHRA BKN020 SCT030CB 530002 
     TEMPO 1908/1916 26028G38KT 2000 -TSSHRA BKN010 570005 
     BECMG 1915/1917 35014KT 
     TEMPO 1915/2002 BR -RA BKN007
       
UTAV 190500Z 23012KT 9999 FEW012CB OVC012 10/08 Q1011 NOSIG
TAF UTAV 190430Z 1906/2006 26016KT 5000 -RA BKN007 SCT020CB 530003 
     TEMPO 1906/1912 20018G28KT 2000 RA BKN005 
     PROB40 
     TEMPO 1906/1912 VRB40KT TS 
     TEMPO 1912/1918 32022G32KT 2000 RA OVC004
       
UTAK 190500Z 34022KT 9999 -RA OVC006 06/04 Q1018 R34R/29//50 TEMPO 3000 -RA BR OVC002
TAF UTAK 190430Z 1906/2006 33026G36KT 3000 -RA BR BKN007 SCT023CB OVC100 530006 
     TEMPO 1906/1909 2000 SHRA OVC004 
     TEMPO 1909/1912 32028G38KT BKN006